createdAt,value
2023-04-14T00:01:29.690Z,2.95
2023-04-14T00:03:53.068Z,2.30
2023-04-14T00:06:16.394Z,3.50
2023-04-14T00:08:41.136Z,2.90
2023-04-14T00:11:05.137Z,2.55
2023-04-14T00:13:28.555Z,3.03
2023-04-14T00:15:52.150Z,3.67
2023-04-14T00:18:15.414Z,2.97
2023-04-14T00:20:38.673Z,3.58
2023-04-14T00:23:01.915Z,2.92
2023-04-14T00:25:26.547Z,2.85
2023-04-14T00:27:49.823Z,3.42
2023-04-14T00:30:14.005Z,3.10
2023-04-14T00:32:37.376Z,2.58
2023-04-14T00:35:03.281Z,2.90
2023-04-14T00:37:26.708Z,3.20
2023-04-14T00:39:49.985Z,3.50
2023-04-14T00:42:14.594Z,3.55
2023-04-14T00:44:37.854Z,3.60
2023-04-14T00:47:02.969Z,3.90
2023-04-14T00:49:26.821Z,4.22
2023-04-14T00:51:50.657Z,3.50
2023-04-14T00:54:16.265Z,3.17
2023-04-14T00:56:40.486Z,2.80
2023-04-14T00:59:05.859Z,3.42
2023-04-14T01:01:30.462Z,3.17
2023-04-14T01:03:54.094Z,3.30
2023-04-14T01:06:17.493Z,3.55
2023-04-14T01:08:40.946Z,3.40
2023-04-14T01:11:17.013Z,2.90
2023-04-14T01:13:50.589Z,2.70
2023-04-14T01:16:23.022Z,3.05
2023-04-14T01:18:56.267Z,3.15
2023-04-14T01:21:27.548Z,3.45
2023-04-14T01:24:08.718Z,3.00
2023-04-14T01:26:33.152Z,3.13
2023-04-14T01:29:28.150Z,2.95
2023-04-14T01:32:02.962Z,3.20
2023-04-14T01:34:35.292Z,2.75
2023-04-14T01:37:05.375Z,3.50
2023-04-14T01:39:42.731Z,2.88
2023-04-14T01:42:11.771Z,3.03
2023-04-14T01:44:36.257Z,3.30
2023-04-14T01:47:08.746Z,3.00
2023-04-14T01:49:36.748Z,2.75
2023-04-14T01:52:02.099Z,3.33
2023-04-14T01:54:26.230Z,2.95
2023-04-14T01:56:51.816Z,3.40
2023-04-14T01:59:17.023Z,3.20
2023-04-14T02:01:42.280Z,3.42
2023-04-14T02:06:32.911Z,3.25
2023-04-14T02:08:56.888Z,3.30
2023-04-14T02:11:21.675Z,3.08
2023-04-14T02:13:46.577Z,3.33
2023-04-14T02:16:11.828Z,2.55
2023-04-14T02:18:38.866Z,3.20
2023-04-14T02:21:05.806Z,2.85
2023-04-14T02:23:29.379Z,3.00
2023-04-14T02:25:58.493Z,3.38
2023-04-14T02:28:26.255Z,3.15
2023-04-14T02:30:52.754Z,3.40
2023-04-14T02:33:21.578Z,2.67
2023-04-14T02:35:48.771Z,2.75
2023-04-14T02:38:21.020Z,2.78
2023-04-14T02:40:46.096Z,2.53
2023-04-14T02:43:15.033Z,3.33
2023-04-14T02:45:42.264Z,2.80
2023-04-14T02:48:12.679Z,3.17
2023-04-14T02:50:38.490Z,3.28
2023-04-14T02:53:14.038Z,2.90
2023-04-14T02:55:38.676Z,3.13
2023-04-14T02:58:02.304Z,3.13
2023-04-14T03:00:28.183Z,2.90
2023-04-14T03:02:54.547Z,2.92
2023-04-14T03:05:18.518Z,3.45
2023-04-14T03:07:58.355Z,3.10
2023-04-14T03:10:24.277Z,3.42
2023-04-14T03:12:49.122Z,2.88
2023-04-14T03:15:13.203Z,3.00
2023-04-14T03:17:38.323Z,3.30
2023-04-14T03:20:03.669Z,2.90
2023-04-14T03:22:29.192Z,2.65
2023-04-14T03:24:57.063Z,3.20
2023-04-14T03:27:26.104Z,4.60
2023-04-14T03:29:53.328Z,3.47
2023-04-14T03:32:19.054Z,3.08
2023-04-14T03:34:46.447Z,3.58
2023-04-14T03:37:12.457Z,2.97
2023-04-14T03:39:39.797Z,3.30
2023-04-14T03:42:05.558Z,3.65
2023-04-14T03:44:35.597Z,2.85
2023-04-14T03:47:00.706Z,2.75
2023-04-14T03:49:27.178Z,3.15
2023-04-14T03:51:53.600Z,3.03
2023-04-14T03:54:18.744Z,3.53
2023-04-14T03:56:45.345Z,2.97
2023-04-14T03:59:13.230Z,3.97
2023-04-14T04:01:41.813Z,3.42
2023-04-14T04:04:08.350Z,3.78
2023-04-14T04:06:32.240Z,3.95
2023-04-14T04:08:59.129Z,3.83
2023-04-14T04:11:23.742Z,3.65
2023-04-14T04:13:50.381Z,4.07
2023-04-14T04:16:15.568Z,4.22
2023-04-14T04:18:46.187Z,3.45
2023-04-14T04:21:12.533Z,3.65
2023-04-14T04:23:38.541Z,3.30
2023-04-14T04:26:02.633Z,3.30
2023-04-14T04:28:33.484Z,3.15
2023-04-14T04:30:59.370Z,3.85
2023-04-14T04:33:23.963Z,3.70
2023-04-14T04:35:49.641Z,3.83
2023-04-14T04:38:12.957Z,3.25
2023-04-14T04:40:40.039Z,3.75
2023-04-14T04:43:10.025Z,3.50
2023-04-14T04:45:50.415Z,3.25
2023-04-14T04:48:13.789Z,4.00
2023-04-14T04:50:40.357Z,3.65
2023-04-14T04:53:06.374Z,3.75
2023-04-14T04:55:29.591Z,4.40
2023-04-14T04:57:52.919Z,4.35
2023-04-14T05:00:16.985Z,4.57
2023-04-14T05:02:40.387Z,4.60
2023-04-14T05:05:04.011Z,4.20
2023-04-14T05:07:27.393Z,4.63
2023-04-14T05:09:52.537Z,5.38
2023-04-14T05:12:16.107Z,4.40
2023-04-14T05:14:39.449Z,4.55
2023-04-14T05:17:04.192Z,4.57
2023-04-14T05:19:27.450Z,5.55
2023-04-14T05:21:50.760Z,4.63
2023-04-14T05:24:14.011Z,4.93
2023-04-14T05:26:57.745Z,4.13
2023-04-14T05:29:21.856Z,5.20
2023-04-14T05:31:45.225Z,5.03
2023-04-14T05:34:08.511Z,4.47
2023-04-14T05:36:32.234Z,4.75
2023-04-14T05:38:55.512Z,4.45
2023-04-14T05:41:18.767Z,4.78
2023-04-14T05:43:43.398Z,4.97
2023-04-14T05:46:06.975Z,4.60
2023-04-14T05:48:31.051Z,4.72
2023-04-14T05:50:54.396Z,4.75
2023-04-14T05:53:17.714Z,4.90
2023-04-14T05:55:42.154Z,5.35
2023-04-14T05:58:05.414Z,5.53
2023-04-14T06:00:30.961Z,5.72
2023-04-14T06:02:54.474Z,6.70
2023-04-14T06:05:18.183Z,7.47
2023-04-14T06:07:42.110Z,7.45
2023-04-14T06:10:06.896Z,7.47
2023-04-14T06:12:30.350Z,7.63
2023-04-14T06:14:53.677Z,7.10
2023-04-14T06:17:18.389Z,8.02
2023-04-14T06:19:41.838Z,7.85
2023-04-14T06:22:05.483Z,7.53
2023-04-14T06:24:28.706Z,7.20
2023-04-14T06:26:52.479Z,7.63
2023-04-14T06:29:15.697Z,7.00
2023-04-14T06:31:39.057Z,6.38
2023-04-14T06:34:03.828Z,6.88
2023-04-14T06:36:27.179Z,7.32
2023-04-14T06:38:50.627Z,7.30
2023-04-14T06:41:13.878Z,7.50
2023-04-14T06:43:37.175Z,6.85
2023-04-14T06:46:00.582Z,7.05
2023-04-14T06:48:23.861Z,6.45
2023-04-14T06:50:55.744Z,6.68
2023-04-14T06:53:19.046Z,6.72
2023-04-14T06:55:43.116Z,6.85
2023-04-14T06:58:06.445Z,6.75
2023-04-14T07:00:29.713Z,7.30
2023-04-14T07:02:53.151Z,6.80
2023-04-14T07:05:17.340Z,6.68
2023-04-14T07:07:42.217Z,6.00
2023-04-14T07:10:06.739Z,7.30
2023-04-14T07:12:30.317Z,6.93
2023-04-14T07:14:53.649Z,6.78
2023-04-14T07:17:16.949Z,6.90
2023-04-14T07:19:40.249Z,6.68
2023-04-14T07:22:03.582Z,7.05
2023-04-14T07:24:28.215Z,7.30
2023-04-14T07:26:51.470Z,7.38
2023-04-14T07:29:14.709Z,5.88
2023-04-14T07:31:39.680Z,5.28
2023-04-14T07:34:03.156Z,5.53
2023-04-14T07:36:26.975Z,6.00
2023-04-14T07:38:52.012Z,5.07
2023-04-14T07:41:17.119Z,5.80
2023-04-14T07:43:40.428Z,5.00
2023-04-14T07:46:05.512Z,5.82
2023-04-14T07:48:29.759Z,5.20
2023-04-14T07:50:52.981Z,5.70
2023-04-14T07:53:16.278Z,5.63
2023-04-14T07:55:39.567Z,5.22
2023-04-14T07:58:04.183Z,6.38
2023-04-14T08:00:27.587Z,5.22
2023-04-14T08:02:50.972Z,5.18
2023-04-14T08:05:14.464Z,4.80
2023-04-14T08:07:38.703Z,4.18
2023-04-14T08:10:02.067Z,4.28
2023-04-14T08:12:25.585Z,4.78
2023-04-14T08:14:50.156Z,4.10
2023-04-14T08:17:13.394Z,4.72
2023-04-14T08:19:36.961Z,4.05
2023-04-14T08:22:00.301Z,4.05
2023-04-14T08:24:23.568Z,3.83
2023-04-14T08:26:46.866Z,4.15
2023-04-14T08:29:10.112Z,4.20
2023-04-14T08:31:34.945Z,3.75
2023-04-14T08:33:58.237Z,3.63
2023-04-14T08:36:22.035Z,3.65
2023-04-14T08:38:45.519Z,3.72
2023-04-14T08:41:10.007Z,3.70
2023-04-14T08:43:33.309Z,3.95
2023-04-14T08:45:57.931Z,3.78
2023-04-14T08:48:25.561Z,3.85
2023-04-14T08:51:08.332Z,3.90
2023-04-14T08:53:33.429Z,4.00
2023-04-14T08:55:58.585Z,3.70
2023-04-14T08:58:22.375Z,4.32
2023-04-14T09:00:45.749Z,4.32
2023-04-14T09:03:09.983Z,3.72
2023-04-14T09:05:35.046Z,4.32
2023-04-14T09:07:59.153Z,3.90
2023-04-14T09:10:23.246Z,4.07
2023-04-14T09:12:47.159Z,4.07
2023-04-14T09:15:13.378Z,4.07
2023-04-14T09:17:37.539Z,4.20
2023-04-14T09:20:36.125Z,4.22
2023-04-14T09:22:46.312Z,4.07
2023-04-14T09:25:11.316Z,4.15
2023-04-14T09:27:35.130Z,3.75
2023-04-14T09:29:59.460Z,3.45
2023-04-14T09:32:23.687Z,3.70
2023-04-14T09:34:53.920Z,3.15
2023-04-14T09:37:18.740Z,2.65
2023-04-14T09:39:51.751Z,2.80
2023-04-14T09:42:15.047Z,3.03
2023-04-14T09:44:54.864Z,3.20
2023-04-14T09:47:22.585Z,2.70
2023-04-14T09:49:58.097Z,3.30
2023-04-14T09:52:21.430Z,2.70
2023-04-14T09:54:45.514Z,3.15
2023-04-14T09:57:10.299Z,2.53
2023-04-14T09:59:36.747Z,2.45
2023-04-14T10:02:02.032Z,2.67
2023-04-14T10:04:26.914Z,2.70
2023-04-14T10:06:50.521Z,2.85
2023-04-14T10:09:23.184Z,2.90
2023-04-14T10:11:46.416Z,2.22
2023-04-14T10:14:11.068Z,2.17
2023-04-14T10:16:35.068Z,2.90
2023-04-14T10:18:58.839Z,2.40
2023-04-14T10:21:23.156Z,2.75
2023-04-14T10:23:47.196Z,2.50
2023-04-14T10:26:12.546Z,2.33
2023-04-14T10:28:36.926Z,1.60
2023-04-14T10:31:03.195Z,2.50
2023-04-14T10:33:28.116Z,2.85
2023-04-14T10:36:00.607Z,2.75
2023-04-14T10:38:24.018Z,2.65
2023-04-14T10:40:48.071Z,2.47
2023-04-14T10:43:13.980Z,2.53
2023-04-14T10:45:54.881Z,3.03
2023-04-14T10:48:19.946Z,2.53
2023-04-14T10:50:48.996Z,2.58
2023-04-14T10:53:12.528Z,2.70
2023-04-14T10:55:52.289Z,2.75
2023-04-14T10:58:21.278Z,2.88
2023-04-14T11:00:44.595Z,2.63
2023-04-14T11:03:12.959Z,2.75
2023-04-14T11:05:44.246Z,2.90
2023-04-14T11:08:15.786Z,2.60
2023-04-14T11:10:39.434Z,3.28
2023-04-14T11:13:06.934Z,3.00
2023-04-14T11:15:46.677Z,2.05
2023-04-14T11:18:14.761Z,2.40
2023-04-14T11:20:42.095Z,2.30
2023-04-14T11:23:05.508Z,2.10
2023-04-14T11:25:28.789Z,2.38
2023-04-14T11:27:52.410Z,2.42
2023-04-14T11:30:17.918Z,2.03
2023-04-14T11:32:49.090Z,2.70
2023-04-14T11:35:13.057Z,2.75
2023-04-14T11:37:38.173Z,2.80
2023-04-14T11:40:01.470Z,2.15
2023-04-14T11:42:26.461Z,1.83
2023-04-14T11:44:58.455Z,2.03
2023-04-14T11:47:22.881Z,1.90
2023-04-14T11:49:46.133Z,1.70
2023-04-14T11:52:09.692Z,2.00
2023-04-14T11:54:38.404Z,1.80
2023-04-14T11:57:01.786Z,1.95
2023-04-14T11:59:25.274Z,2.60
2023-04-14T12:01:51.420Z,2.20
2023-04-14T12:04:14.926Z,2.30
2023-04-14T12:06:39.082Z,2.10
2023-04-14T12:09:03.898Z,1.70
2023-04-14T12:11:28.568Z,2.08
2023-04-14T12:13:52.773Z,2.00
2023-04-14T12:16:18.176Z,1.67
2023-04-14T12:18:41.881Z,2.10
2023-04-14T12:21:09.760Z,1.83
2023-04-14T12:23:37.095Z,2.05
2023-04-14T12:26:00.384Z,1.80
2023-04-14T12:28:28.971Z,1.65
2023-04-14T12:30:54.933Z,1.98
2023-04-14T12:33:18.341Z,2.13
2023-04-14T12:35:41.696Z,1.80
2023-04-14T12:38:12.617Z,1.70
2023-04-14T12:40:40.585Z,1.80
2023-04-14T12:43:03.915Z,1.50
2023-04-14T12:45:28.683Z,1.95
2023-04-14T12:47:56.858Z,1.65
2023-04-14T12:50:27.002Z,2.10
2023-04-14T12:52:50.330Z,1.77
2023-04-14T12:55:22.186Z,1.60
2023-04-14T12:57:45.421Z,1.40
2023-04-14T13:00:11.224Z,1.33
2023-04-14T13:02:36.321Z,1.85
2023-04-14T13:05:00.045Z,1.63
2023-04-14T13:07:23.410Z,1.60
2023-04-14T13:09:46.780Z,1.50
2023-04-14T13:12:10.141Z,1.70
2023-04-14T13:14:33.379Z,1.63
2023-04-14T13:16:56.662Z,1.40
2023-04-14T13:19:21.261Z,1.20
2023-04-14T13:21:44.542Z,1.45
2023-04-14T13:24:08.211Z,1.75
2023-04-14T13:26:31.528Z,1.40
2023-04-14T13:28:54.898Z,1.70
2023-04-14T13:31:18.809Z,1.63
2023-04-14T13:33:42.458Z,1.63
2023-04-14T13:36:08.557Z,1.50
2023-04-14T13:38:31.892Z,1.60
2023-04-14T13:40:55.202Z,1.30
2023-04-14T13:43:19.482Z,1.90
2023-04-14T13:45:42.822Z,1.75
2023-04-14T13:48:07.246Z,1.88
2023-04-14T13:50:30.865Z,1.67
2023-04-14T13:52:55.474Z,1.70
2023-04-14T13:55:19.506Z,1.83
2023-04-14T13:57:42.815Z,1.50
2023-04-14T14:00:09.689Z,1.50
2023-04-14T14:02:33.913Z,1.58
2023-04-14T14:04:57.322Z,1.75
2023-04-14T14:07:20.524Z,1.20
2023-04-14T14:09:45.867Z,1.67
2023-04-14T14:12:12.866Z,1.38
2023-04-14T14:14:36.129Z,1.42
2023-04-14T14:16:59.332Z,1.13
2023-04-14T14:19:22.988Z,1.45
2023-04-14T14:21:46.259Z,1.20
2023-04-14T14:24:09.810Z,1.50
2023-04-14T14:26:34.379Z,1.30
2023-04-14T14:28:57.744Z,1.75
2023-04-14T14:31:21.029Z,1.58
2023-04-14T14:33:44.335Z,1.40
2023-04-14T14:36:07.961Z,1.40
2023-04-14T14:38:31.297Z,1.77
2023-04-14T14:40:54.792Z,1.48
2023-04-14T14:43:19.487Z,1.50
2023-04-14T14:45:42.704Z,1.40
2023-04-14T14:48:06.674Z,1.30
2023-04-14T14:50:29.967Z,1.60
2023-04-14T14:52:56.050Z,1.30
2023-04-14T14:55:19.834Z,1.40
2023-04-14T14:57:43.122Z,1.80
2023-04-14T15:00:10.970Z,1.55
2023-04-14T15:02:34.460Z,1.27
2023-04-14T15:04:58.620Z,1.30
2023-04-14T15:07:21.885Z,0.82
2023-04-14T15:09:47.052Z,1.10
2023-04-14T15:12:10.823Z,1.20
2023-04-14T15:14:34.108Z,0.90
2023-04-14T15:16:59.014Z,1.40
2023-04-14T15:19:23.560Z,1.35
2023-04-14T15:21:46.929Z,1.05
2023-04-14T15:24:10.576Z,0.95
2023-04-14T15:26:33.907Z,1.17
2023-04-14T15:28:57.214Z,1.10
2023-04-14T15:31:20.728Z,1.58
2023-04-14T15:33:45.645Z,1.58
2023-04-14T15:36:08.981Z,1.30
2023-04-14T15:38:32.730Z,1.20
2023-04-14T15:40:56.044Z,1.13
2023-04-14T15:43:19.278Z,1.10
2023-04-14T15:45:42.635Z,1.00
2023-04-14T15:48:06.419Z,1.15
2023-04-14T15:50:31.208Z,1.00
2023-04-14T15:52:55.795Z,1.10
2023-04-14T15:55:19.077Z,1.40
2023-04-14T15:57:42.344Z,1.05
2023-04-14T16:00:08.040Z,0.98
2023-04-14T16:02:37.637Z,1.20
2023-04-14T16:05:01.252Z,1.25
2023-04-14T16:07:26.146Z,0.90
2023-04-14T16:09:49.952Z,1.20
2023-04-14T16:12:13.202Z,1.08
2023-04-14T16:14:36.512Z,1.23
2023-04-14T16:16:59.799Z,1.20
2023-04-14T16:19:23.385Z,0.90
2023-04-14T16:21:46.691Z,1.13
2023-04-14T16:24:11.546Z,1.17
2023-04-14T16:26:35.132Z,1.02
2023-04-14T16:28:58.463Z,1.05
2023-04-14T16:31:21.718Z,1.15
2023-04-14T16:33:45.263Z,0.88
2023-04-14T16:36:08.781Z,1.27
2023-04-14T16:38:32.123Z,1.20
2023-04-14T16:40:58.329Z,1.20
2023-04-14T16:43:21.717Z,1.48
2023-04-14T16:45:46.571Z,1.15
2023-04-14T16:48:09.843Z,1.30
2023-04-14T16:50:33.213Z,1.38
2023-04-14T16:52:56.598Z,0.90
2023-04-14T16:55:20.608Z,0.90
2023-04-14T16:57:45.229Z,1.48
2023-04-14T17:00:12.096Z,0.90
2023-04-14T17:02:37.938Z,1.52
2023-04-14T17:05:03.472Z,1.30
2023-04-14T17:07:26.814Z,1.00
2023-04-14T17:09:50.049Z,1.35
2023-04-14T17:12:13.505Z,1.23
2023-04-14T17:14:38.522Z,1.05
2023-04-14T17:17:02.762Z,1.63
2023-04-14T17:19:26.593Z,1.58
2023-04-14T17:21:50.303Z,1.20
2023-04-14T17:24:14.603Z,1.55
2023-04-14T17:26:37.948Z,1.40
2023-04-14T17:29:01.250Z,1.20
2023-04-14T17:31:26.485Z,1.27
2023-04-14T17:33:50.303Z,1.58
2023-04-14T17:36:16.568Z,1.20
2023-04-14T17:38:40.471Z,1.30
2023-04-14T17:41:03.951Z,1.50
2023-04-14T17:43:27.355Z,1.40
2023-04-14T17:45:50.820Z,1.50
2023-04-14T17:48:15.641Z,1.30
2023-04-14T17:50:39.176Z,1.40
2023-04-14T17:53:02.948Z,1.45
2023-04-14T17:55:26.292Z,1.45
2023-04-14T17:57:50.546Z,1.50
2023-04-14T18:00:16.907Z,1.65
2023-04-14T18:02:41.289Z,1.67
2023-04-14T18:05:06.776Z,1.38
2023-04-14T18:07:31.357Z,1.65
2023-04-14T18:09:54.779Z,1.33
2023-04-14T18:12:18.647Z,1.70
2023-04-14T18:14:44.588Z,1.73
2023-04-14T18:17:07.919Z,1.95
2023-04-14T18:19:31.190Z,2.00
2023-04-14T18:21:56.800Z,1.45
2023-04-14T18:26:46.335Z,1.63
2023-04-14T18:29:09.564Z,2.10
2023-04-14T18:31:32.953Z,2.20
2023-04-14T18:33:56.694Z,2.03
2023-04-14T18:36:19.975Z,1.85
2023-04-14T18:38:44.637Z,2.05
2023-04-14T18:41:08.344Z,2.10
2023-04-14T18:43:32.527Z,2.22
2023-04-14T18:45:55.838Z,1.90
2023-04-14T18:48:20.092Z,2.08
2023-04-14T18:50:44.214Z,1.90
2023-04-14T18:53:07.552Z,2.38
2023-04-14T18:55:44.740Z,1.83
2023-04-14T18:58:12.434Z,2.00
2023-04-14T19:00:36.377Z,2.53
2023-04-14T19:03:00.184Z,2.40
2023-04-14T19:05:25.227Z,2.88
2023-04-14T19:07:48.516Z,2.78
2023-04-14T19:10:11.910Z,2.63
2023-04-14T19:12:37.810Z,2.72
2023-04-14T19:15:02.644Z,2.67
2023-04-14T19:17:26.091Z,2.90
2023-04-14T19:19:50.317Z,2.72
2023-04-14T19:22:15.766Z,2.92
2023-04-14T19:24:39.047Z,2.60
2023-04-14T19:27:02.959Z,3.00
2023-04-14T19:29:28.108Z,2.75
2023-04-14T19:31:51.907Z,3.25
2023-04-14T19:34:15.499Z,3.38
2023-04-14T19:36:39.528Z,3.05
2023-04-14T19:39:03.937Z,3.00
2023-04-14T19:41:27.373Z,3.67
2023-04-14T19:43:51.963Z,4.10
2023-04-14T19:46:16.678Z,3.10
2023-04-14T19:48:40.467Z,4.43
2023-04-14T19:51:04.181Z,5.50
2023-04-14T19:53:27.979Z,6.05
2023-04-14T19:55:51.940Z,4.32
2023-04-14T19:58:15.691Z,4.15
2023-04-14T20:00:40.951Z,3.60
2023-04-14T20:03:05.865Z,3.90
2023-04-14T20:05:29.111Z,3.42
2023-04-14T20:07:52.969Z,3.47
2023-04-14T20:10:16.399Z,3.03
2023-04-14T20:12:40.322Z,2.97
2023-04-14T20:15:04.551Z,2.80
2023-04-14T20:17:28.611Z,2.70
2023-04-14T20:19:53.265Z,3.42
2023-04-14T20:22:16.560Z,3.00
2023-04-14T20:24:39.887Z,3.05
2023-04-14T20:27:04.351Z,3.20
2023-04-14T20:29:27.668Z,3.13
2023-04-14T20:31:51.459Z,3.47
2023-04-14T20:34:15.040Z,3.58
2023-04-14T20:36:40.107Z,4.10
2023-04-14T20:39:04.754Z,4.47
2023-04-14T20:41:28.066Z,3.95
2023-04-14T20:43:51.316Z,4.03
2023-04-14T20:46:15.642Z,4.75
2023-04-14T20:48:38.919Z,4.43
2023-04-14T20:51:02.500Z,4.10
2023-04-14T20:53:28.668Z,3.90
2023-04-14T20:55:56.219Z,3.67
2023-04-14T20:58:19.485Z,3.45
2023-04-14T21:00:43.401Z,3.40
2023-04-14T21:03:07.023Z,3.95
2023-04-14T21:05:30.450Z,3.92
2023-04-14T21:07:53.791Z,3.80
2023-04-14T21:10:18.498Z,3.67
2023-04-14T21:15:26.735Z,4.00
2023-04-14T21:15:47.041Z,4.07
2023-04-14T21:18:09.726Z,4.20
2023-04-14T21:20:33.364Z,3.55
2023-04-14T21:22:57.448Z,3.60
2023-04-14T21:25:22.159Z,4.47
2023-04-14T21:27:45.392Z,4.50
2023-04-14T21:30:10.742Z,5.05
2023-04-14T21:32:34.163Z,4.32
2023-04-14T21:34:57.497Z,3.85
2023-04-14T21:37:20.818Z,3.30
2023-04-14T21:39:44.378Z,4.20
2023-04-14T21:42:09.533Z,3.95
2023-04-14T21:44:32.768Z,3.50
2023-04-14T21:46:56.923Z,3.65
2023-04-14T21:49:20.174Z,3.65
2023-04-14T21:51:43.875Z,3.70
2023-04-14T21:54:07.614Z,4.43
2023-04-14T21:56:31.424Z,4.50
2023-04-14T21:58:56.276Z,4.95
2023-04-14T22:01:19.942Z,4.28
2023-04-14T22:03:43.453Z,4.47
2023-04-14T22:06:07.257Z,4.45
2023-04-14T22:08:30.527Z,5.10
2023-04-14T22:10:54.821Z,5.45
2023-04-14T22:13:18.486Z,5.70
2023-04-14T22:15:44.229Z,5.18
2023-04-14T22:18:07.419Z,5.70
2023-04-14T22:20:31.044Z,5.05
2023-04-14T22:22:54.504Z,5.15
2023-04-14T22:25:18.130Z,5.13
2023-04-14T22:27:41.466Z,5.15
2023-04-14T22:30:06.034Z,5.30
2023-04-14T22:32:30.780Z,5.18
2023-04-14T22:34:54.010Z,5.97
2023-04-14T22:37:18.070Z,5.30
2023-04-14T22:39:41.855Z,5.22
2023-04-14T22:42:05.268Z,5.30
2023-04-14T22:44:28.525Z,5.75
2023-04-14T22:46:51.768Z,5.35
2023-04-14T22:49:16.428Z,5.30
2023-04-14T22:51:39.646Z,5.68
2023-04-14T22:54:02.896Z,4.93
2023-04-14T22:56:26.420Z,5.00
2023-04-14T22:58:49.649Z,4.82
2023-04-14T23:01:22.002Z,5.18
2023-04-14T23:03:47.039Z,4.88
2023-04-14T23:06:11.882Z,5.28
2023-04-14T23:08:35.203Z,4.90
2023-04-14T23:10:58.460Z,4.82
2023-04-14T23:13:22.179Z,5.00
2023-04-14T23:15:45.607Z,4.82
2023-04-14T23:18:09.381Z,5.30
2023-04-14T23:20:32.741Z,5.15
2023-04-14T23:22:57.771Z,5.05
2023-04-14T23:25:21.000Z,4.78
2023-04-14T23:27:44.633Z,5.10
2023-04-14T23:30:10.294Z,5.25
2023-04-14T23:32:34.168Z,5.38
2023-04-14T23:34:57.676Z,4.28
2023-04-14T23:37:21.098Z,5.05
2023-04-14T23:39:46.893Z,5.10
2023-04-14T23:42:10.186Z,5.00
2023-04-14T23:44:33.421Z,5.10
2023-04-14T23:46:56.668Z,4.88
2023-04-14T23:49:23.742Z,5.18
2023-04-14T23:51:48.095Z,4.90
2023-04-14T23:54:11.551Z,5.25
2023-04-14T23:56:36.580Z,5.22
2023-04-14T23:59:00.676Z,6.20
